createdAt,value
2019-02-20T00:01:30.383Z,9.24
2019-02-20T00:03:59.728Z,9.24
2019-02-20T00:06:29.077Z,9.24
2019-02-20T00:08:58.521Z,9.25
2019-02-20T00:11:27.851Z,9.24
2019-02-20T00:13:57.196Z,9.24
2019-02-20T00:16:26.518Z,9.26
2019-02-20T00:18:55.871Z,9.26
2019-02-20T00:21:25.201Z,9.27
2019-02-20T00:23:54.645Z,9.25
2019-02-20T00:26:23.977Z,9.25
2019-02-20T00:28:53.328Z,9.27
2019-02-20T00:31:24.094Z,9.25
2019-02-20T00:33:53.425Z,9.26
2019-02-20T00:36:22.777Z,9.27
2019-02-20T00:38:52.141Z,9.27
2019-02-20T00:41:21.492Z,9.27
2019-02-20T00:44:16.795Z,9.27
2019-02-20T00:47:20.511Z,9.28
2019-02-20T00:49:50.985Z,9.27
2019-02-20T00:52:49.691Z,9.28
2019-02-20T00:55:13.163Z,9.29
2019-02-20T00:57:42.500Z,9.28
2019-02-20T01:00:12.822Z,9.28
2019-02-20T01:02:42.222Z,9.29
2019-02-20T01:05:11.752Z,9.30
2019-02-20T01:07:41.110Z,9.29
2019-02-20T01:10:10.616Z,9.29
2019-02-20T01:12:40.050Z,9.29
2019-02-20T01:15:09.698Z,9.28
2019-02-20T01:17:39.032Z,9.28
2019-02-20T01:20:09.296Z,9.28
2019-02-20T01:22:38.600Z,9.28
2019-02-20T01:25:08.444Z,9.28
2019-02-20T01:27:37.798Z,9.27
2019-02-20T01:30:07.248Z,9.27
2019-02-20T01:32:36.707Z,9.27
2019-02-20T01:35:06.664Z,9.26
2019-02-20T01:37:35.999Z,9.25
2019-02-20T01:40:05.476Z,9.25
2019-02-20T01:42:34.824Z,9.24
2019-02-20T01:45:04.172Z,9.24
2019-02-20T01:47:33.514Z,9.24
2019-02-20T01:50:02.877Z,9.24
2019-02-20T01:52:32.220Z,9.22
2019-02-20T01:55:01.571Z,9.22
2019-02-20T01:57:30.943Z,9.22
2019-02-20T02:00:00.344Z,9.20
2019-02-20T02:02:29.719Z,9.20
2019-02-20T02:04:59.085Z,9.18
2019-02-20T02:07:28.428Z,9.17
2019-02-20T02:09:57.760Z,9.17
2019-02-20T02:12:27.099Z,9.15
2019-02-20T02:14:56.435Z,9.15
2019-02-20T02:17:25.743Z,9.14
2019-02-20T02:19:55.103Z,9.14
2019-02-20T02:22:24.459Z,9.13
2019-02-20T02:24:53.777Z,9.12
2019-02-20T02:27:23.143Z,9.12
2019-02-20T02:29:52.483Z,9.12
2019-02-20T02:32:21.830Z,9.12
2019-02-20T02:34:51.303Z,9.13
2019-02-20T02:37:20.633Z,9.11
2019-02-20T02:39:49.984Z,9.12
2019-02-20T02:42:20.163Z,9.11
2019-02-20T02:44:49.520Z,9.11
2019-02-20T02:47:18.855Z,9.11
2019-02-20T02:49:48.191Z,9.11
2019-02-20T02:52:17.588Z,9.11
2019-02-20T02:54:46.907Z,9.10
2019-02-20T02:57:16.285Z,9.11
2019-02-20T02:59:45.608Z,9.10
2019-02-20T03:02:14.944Z,9.10
2019-02-20T03:04:44.276Z,9.10
2019-02-20T03:07:13.643Z,9.11
2019-02-20T03:09:42.999Z,9.10
2019-02-20T03:12:12.324Z,9.09
2019-02-20T03:14:41.679Z,9.09
2019-02-20T03:17:12.063Z,9.09
2019-02-20T03:19:41.421Z,9.09
2019-02-20T03:22:10.762Z,9.08
2019-02-20T03:24:40.109Z,9.07
2019-02-20T03:27:09.447Z,9.07
2019-02-20T03:29:39.590Z,9.06
2019-02-20T03:32:08.962Z,9.06
2019-02-20T03:34:38.259Z,9.06
2019-02-20T03:37:07.618Z,9.05
2019-02-20T03:39:37.069Z,9.03
2019-02-20T03:42:06.411Z,9.04
2019-02-20T03:44:35.773Z,9.03
2019-02-20T03:47:05.109Z,9.03
2019-02-20T03:49:34.489Z,9.03
2019-02-20T03:52:03.829Z,9.03
2019-02-20T03:54:33.196Z,9.04
2019-02-20T03:57:02.541Z,9.04
2019-02-20T03:59:31.973Z,9.04
2019-02-20T04:02:01.348Z,9.04
2019-02-20T04:04:30.698Z,9.05
2019-02-20T04:07:00.062Z,9.06
2019-02-20T04:09:29.391Z,9.05
2019-02-20T04:11:58.811Z,9.06
2019-02-20T04:14:28.161Z,9.06
2019-02-20T04:16:57.502Z,9.08
2019-02-20T04:19:26.869Z,9.08
2019-02-20T04:21:56.195Z,9.09
2019-02-20T04:24:25.619Z,9.10
2019-02-20T04:26:54.961Z,9.11
2019-02-20T04:29:24.317Z,9.13
2019-02-20T04:31:53.661Z,9.15
2019-02-20T04:34:22.987Z,9.16
2019-02-20T04:36:52.444Z,9.17
2019-02-20T04:39:21.774Z,9.17
2019-02-20T04:41:51.119Z,9.18
2019-02-20T04:44:20.474Z,9.19
2019-02-20T04:46:49.859Z,9.19
2019-02-20T04:49:19.240Z,9.20
2019-02-20T04:51:48.532Z,9.21
2019-02-20T04:54:17.889Z,9.21
2019-02-20T04:56:47.247Z,9.22
2019-02-20T04:59:16.590Z,9.21
2019-02-20T05:01:45.906Z,9.22
2019-02-20T05:04:15.259Z,9.22
2019-02-20T05:06:44.646Z,9.21
2019-02-20T05:09:14.014Z,9.21
2019-02-20T05:11:43.431Z,9.22
2019-02-20T05:14:12.799Z,9.22
2019-02-20T05:16:42.131Z,9.22
2019-02-20T05:19:11.484Z,9.22
2019-02-20T05:21:40.828Z,9.21
2019-02-20T05:24:10.179Z,9.22
2019-02-20T05:26:39.553Z,9.21
2019-02-20T05:29:08.852Z,9.22
2019-02-20T05:31:38.211Z,9.23
2019-02-20T05:34:07.527Z,9.22
2019-02-20T05:36:36.886Z,9.21
2019-02-20T05:39:07.306Z,9.22
2019-02-20T05:41:36.628Z,9.21
2019-02-20T05:44:05.980Z,9.22
2019-02-20T05:46:35.360Z,9.22
2019-02-20T05:49:04.829Z,9.21
2019-02-20T05:51:34.185Z,9.21
2019-02-20T05:54:03.545Z,9.22
2019-02-20T05:56:32.915Z,9.22
2019-02-20T05:59:02.290Z,9.23
2019-02-20T06:01:31.607Z,9.22
2019-02-20T06:04:00.987Z,9.22
2019-02-20T06:06:30.325Z,9.23
2019-02-20T06:09:00.209Z,9.23
2019-02-20T06:11:29.567Z,9.24
2019-02-20T06:14:01.293Z,9.25
2019-02-20T06:16:30.646Z,9.26
2019-02-20T06:18:59.956Z,9.25
2019-02-20T06:21:29.328Z,9.26
2019-02-20T06:23:58.669Z,9.27
2019-02-20T06:26:28.019Z,9.27
2019-02-20T06:28:57.361Z,9.28
2019-02-20T06:31:26.673Z,9.29
2019-02-20T06:33:56.016Z,9.29
2019-02-20T06:36:27.073Z,9.29
2019-02-20T06:38:56.430Z,9.30
2019-02-20T06:41:25.735Z,9.30
2019-02-20T06:43:55.071Z,9.30
2019-02-20T06:46:24.424Z,9.29
2019-02-20T06:48:53.748Z,9.28
2019-02-20T06:51:23.094Z,9.28
2019-02-20T06:53:52.437Z,9.28
2019-02-20T06:56:21.808Z,9.27
2019-02-20T06:58:51.778Z,9.26
2019-02-20T07:01:21.103Z,9.25
2019-02-20T07:03:50.472Z,9.26
2019-02-20T07:06:51.178Z,9.25
2019-02-20T07:09:58.974Z,9.26
2019-02-20T07:13:01.621Z,9.26
2019-02-20T07:16:20.076Z,9.25
2019-02-20T07:19:57.708Z,9.26
2019-02-20T07:23:23.119Z,9.26
2019-02-20T07:26:29.129Z,9.27
2019-02-20T07:29:35.107Z,9.28
2019-02-20T07:32:04.455Z,9.29
2019-02-20T07:34:33.833Z,9.30
2019-02-20T07:37:04.191Z,9.31
2019-02-20T07:39:33.508Z,9.32
2019-02-20T07:42:02.853Z,9.31
2019-02-20T07:44:32.252Z,9.33
2019-02-20T07:47:01.642Z,9.34
2019-02-20T07:49:30.970Z,9.35
2019-02-20T07:52:00.298Z,9.35
2019-02-20T07:54:29.703Z,9.35
2019-02-20T07:56:59.102Z,9.35
2019-02-20T07:59:28.478Z,9.36
2019-02-20T08:01:57.813Z,9.36
2019-02-20T08:04:27.201Z,9.35
2019-02-20T08:06:56.557Z,9.36
2019-02-20T08:09:26.168Z,9.36
2019-02-20T08:11:55.527Z,9.36
2019-02-20T08:14:24.919Z,9.37
2019-02-20T08:16:54.239Z,9.37
2019-02-20T08:19:23.589Z,9.39
2019-02-20T08:21:53.051Z,9.42
2019-02-20T08:24:22.373Z,9.43
2019-02-20T08:26:51.736Z,9.46
2019-02-20T08:29:21.102Z,9.50
2019-02-20T08:31:50.536Z,9.53
2019-02-20T08:34:19.896Z,9.55
2019-02-20T08:36:49.282Z,9.58
2019-02-20T08:39:18.620Z,9.61
2019-02-20T08:41:48.032Z,9.62
2019-02-20T08:44:17.361Z,9.65
2019-02-20T08:46:46.760Z,9.66
2019-02-20T08:49:16.169Z,9.68
2019-02-20T08:51:45.498Z,9.70
2019-02-20T08:54:14.878Z,9.71
2019-02-20T08:56:44.285Z,9.73
2019-02-20T08:59:13.669Z,9.75
2019-02-20T09:01:43.078Z,9.77
2019-02-20T09:04:12.448Z,9.78
2019-02-20T09:06:41.879Z,9.81
2019-02-20T09:09:11.273Z,9.83
2019-02-20T09:11:40.630Z,9.86
2019-02-20T09:14:10.028Z,9.88
2019-02-20T09:16:39.376Z,9.92
2019-02-20T09:19:08.702Z,9.96
2019-02-20T09:21:38.118Z,10.00
2019-02-20T09:24:07.499Z,10.02
2019-02-20T09:26:36.883Z,10.07
2019-02-20T09:29:06.232Z,10.10
2019-02-20T09:31:35.633Z,10.12
2019-02-20T09:34:05.020Z,10.15
2019-02-20T09:36:34.407Z,10.17
2019-02-20T09:39:47.752Z,10.20
2019-02-20T09:42:18.739Z,10.23
2019-02-20T09:44:49.121Z,10.26
2019-02-20T09:47:19.369Z,10.30
2019-02-20T09:49:48.752Z,10.32
2019-02-20T09:52:18.181Z,10.35
2019-02-20T09:54:47.514Z,10.39
2019-02-20T09:57:16.878Z,10.39
2019-02-20T09:59:46.327Z,10.44
2019-02-20T10:02:15.671Z,10.46
2019-02-20T10:04:45.017Z,10.49
2019-02-20T10:07:14.380Z,10.52
2019-02-20T10:09:43.762Z,10.54
2019-02-20T10:12:13.129Z,10.56
2019-02-20T10:14:42.501Z,10.59
2019-02-20T10:17:11.898Z,10.60
2019-02-20T10:19:41.231Z,10.64
2019-02-20T10:22:10.613Z,10.64
2019-02-20T10:24:39.944Z,10.67
2019-02-20T10:27:09.326Z,10.70
2019-02-20T10:29:38.651Z,10.72
2019-02-20T10:32:08.047Z,10.75
2019-02-20T10:34:37.395Z,10.79
2019-02-20T10:37:06.731Z,10.81
2019-02-20T10:39:36.102Z,10.83
2019-02-20T10:42:05.428Z,10.86
2019-02-20T10:44:34.784Z,10.89
2019-02-20T10:47:04.150Z,10.92
2019-02-20T10:49:33.486Z,10.94
2019-02-20T10:52:02.814Z,10.96
2019-02-20T10:54:32.186Z,10.99
2019-02-20T10:57:01.552Z,11.06
2019-02-20T10:59:30.923Z,11.10
2019-02-20T11:02:00.271Z,11.15
2019-02-20T11:04:30.874Z,11.22
2019-02-20T11:07:00.365Z,11.27
2019-02-20T11:09:29.686Z,11.31
2019-02-20T11:11:59.050Z,11.37
2019-02-20T11:14:28.384Z,11.39
2019-02-20T11:16:57.711Z,11.41
2019-02-20T11:19:27.068Z,11.44
2019-02-20T11:21:56.624Z,11.46
2019-02-20T11:24:26.015Z,11.48
2019-02-20T11:26:55.399Z,11.49
2019-02-20T11:29:24.708Z,11.51
2019-02-20T11:31:54.050Z,11.53
2019-02-20T11:34:23.402Z,11.53
2019-02-20T11:36:52.736Z,11.53
2019-02-20T11:39:22.052Z,11.52
2019-02-20T11:41:51.406Z,11.53
2019-02-20T11:44:21.317Z,11.55
2019-02-20T11:46:50.685Z,11.59
2019-02-20T11:49:20.014Z,11.61
2019-02-20T11:51:49.385Z,11.67
2019-02-20T11:54:18.736Z,11.78
2019-02-20T11:56:48.088Z,11.78
2019-02-20T11:59:17.437Z,11.86
2019-02-20T12:01:46.855Z,11.86
2019-02-20T12:04:16.147Z,11.89
2019-02-20T12:06:45.498Z,11.96
2019-02-20T12:09:14.850Z,11.96
2019-02-20T12:11:44.207Z,12.01
2019-02-20T12:14:13.711Z,12.04
2019-02-20T12:16:43.080Z,12.07
2019-02-20T12:19:12.551Z,12.15
2019-02-20T12:21:41.957Z,12.15
2019-02-20T12:24:11.969Z,12.17
2019-02-20T12:26:41.466Z,12.23
2019-02-20T12:29:11.346Z,12.23
2019-02-20T12:31:40.797Z,12.25
2019-02-20T12:34:10.152Z,12.24
2019-02-20T12:36:39.688Z,12.30
2019-02-20T12:39:09.203Z,12.30
2019-02-20T12:41:40.246Z,12.34
2019-02-20T12:44:09.665Z,12.34
2019-02-20T12:46:38.981Z,12.36
2019-02-20T12:49:08.328Z,12.40
2019-02-20T12:51:37.670Z,12.39
2019-02-20T12:54:06.984Z,12.42
2019-02-20T12:56:43.629Z,12.41
2019-02-20T12:59:08.057Z,12.41
2019-02-20T13:01:37.430Z,12.38
2019-02-20T13:04:06.786Z,12.39
2019-02-20T13:06:36.168Z,12.39
2019-02-20T13:09:10.409Z,12.37
2019-02-20T13:11:39.757Z,12.32
2019-02-20T13:14:09.109Z,12.30
2019-02-20T13:16:38.550Z,12.30
2019-02-20T13:19:08.041Z,12.29
2019-02-20T13:21:39.289Z,12.28
2019-02-20T13:24:08.817Z,12.29
2019-02-20T13:26:38.249Z,12.29
2019-02-20T13:29:07.581Z,12.26
2019-02-20T13:31:36.933Z,12.20
2019-02-20T13:34:07.374Z,12.20
2019-02-20T13:36:36.862Z,12.22
2019-02-20T13:39:06.528Z,12.21
2019-02-20T13:41:35.888Z,12.20
2019-02-20T13:44:05.450Z,12.19
2019-02-20T13:46:34.900Z,12.19
2019-02-20T13:49:04.267Z,12.14
2019-02-20T13:51:33.976Z,12.11
2019-02-20T13:54:06.204Z,12.11
2019-02-20T13:56:37.295Z,12.05
2019-02-20T13:59:06.729Z,12.05
2019-02-20T14:01:36.118Z,12.02
2019-02-20T14:04:07.275Z,11.99
2019-02-20T14:06:36.885Z,11.97
2019-02-20T14:09:07.067Z,11.94
2019-02-20T14:11:36.413Z,11.94
2019-02-20T14:14:09.026Z,11.92
2019-02-20T14:16:38.474Z,11.92
2019-02-20T14:19:07.817Z,11.91
2019-02-20T14:21:37.177Z,11.91
2019-02-20T14:24:06.529Z,11.88
2019-02-20T14:26:35.860Z,11.93
2019-02-20T14:29:05.515Z,11.95
2019-02-20T14:31:34.843Z,11.93
2019-02-20T14:34:04.206Z,11.93
2019-02-20T14:36:33.727Z,11.96
2019-02-20T14:39:03.942Z,11.94
2019-02-20T14:41:33.420Z,11.93
2019-02-20T14:44:02.781Z,11.90
2019-02-20T14:46:32.117Z,11.90
2019-02-20T14:49:01.461Z,11.85
2019-02-20T14:51:31.065Z,11.85
2019-02-20T14:54:00.461Z,11.80
2019-02-20T14:56:29.974Z,11.80
2019-02-20T14:58:59.313Z,11.77
2019-02-20T15:01:28.756Z,11.77
2019-02-20T15:03:58.152Z,11.78
2019-02-20T15:06:28.091Z,11.76
2019-02-20T15:08:58.894Z,11.75
2019-02-20T15:11:28.296Z,11.71
2019-02-20T15:13:57.682Z,11.75
2019-02-20T15:16:27.045Z,11.74
2019-02-20T15:18:56.380Z,11.76
2019-02-20T15:21:26.110Z,11.76
2019-02-20T15:23:55.576Z,11.76
2019-02-20T15:26:24.941Z,11.78
2019-02-20T15:28:54.825Z,11.78
2019-02-20T15:31:33.219Z,11.80
2019-02-20T15:33:55.347Z,11.81
2019-02-20T15:36:25.076Z,11.81
2019-02-20T15:38:54.408Z,11.81
2019-02-20T15:41:23.777Z,11.78
2019-02-20T15:43:53.135Z,11.78
2019-02-20T15:46:22.583Z,11.76
2019-02-20T15:48:52.177Z,11.75
2019-02-20T15:51:21.804Z,11.73
2019-02-20T15:53:51.187Z,11.69
2019-02-20T15:56:20.546Z,11.69
2019-02-20T15:58:49.909Z,11.72
2019-02-20T16:01:19.260Z,11.72
2019-02-20T16:03:48.652Z,11.69
2019-02-20T16:06:18.037Z,11.69
2019-02-20T16:08:47.391Z,11.68
2019-02-20T16:11:16.763Z,11.67
2019-02-20T16:13:46.097Z,11.66
2019-02-20T16:16:15.466Z,11.65
2019-02-20T16:18:53.705Z,11.62
2019-02-20T16:21:23.438Z,11.62
2019-02-20T16:23:52.835Z,11.61
2019-02-20T16:26:22.192Z,11.59
2019-02-20T16:28:51.581Z,11.58
2019-02-20T16:31:20.961Z,11.56
2019-02-20T16:33:50.374Z,11.55
2019-02-20T16:36:20.049Z,11.53
2019-02-20T16:38:49.381Z,11.52
2019-02-20T16:41:18.843Z,11.51
2019-02-20T16:43:48.779Z,11.49
2019-02-20T16:46:18.142Z,11.47
2019-02-20T16:48:47.496Z,11.45
2019-02-20T16:51:17.583Z,11.44
2019-02-20T16:53:46.933Z,11.44
2019-02-20T16:56:17.759Z,11.43
2019-02-20T16:58:47.105Z,11.38
2019-02-20T17:01:16.541Z,11.38
2019-02-20T17:03:46.585Z,11.39
2019-02-20T17:06:16.276Z,11.39
2019-02-20T17:08:45.648Z,11.36
2019-02-20T17:11:14.994Z,11.35
2019-02-20T17:13:44.339Z,11.35
2019-02-20T17:16:13.667Z,11.33
2019-02-20T17:18:43.027Z,11.34
2019-02-20T17:21:12.411Z,11.33
2019-02-20T17:23:41.761Z,11.34
2019-02-20T17:26:11.205Z,11.31
2019-02-20T17:28:40.535Z,11.30
2019-02-20T17:31:10.115Z,11.27
2019-02-20T17:33:39.519Z,11.27
2019-02-20T17:36:08.880Z,11.25
2019-02-20T17:38:40.145Z,11.25
2019-02-20T17:41:09.881Z,11.21
2019-02-20T17:43:39.232Z,11.21
2019-02-20T17:46:14.655Z,11.21
2019-02-20T17:48:46.549Z,11.19
2019-02-20T17:51:15.949Z,11.18
2019-02-20T17:53:45.321Z,11.17
2019-02-20T17:56:15.197Z,11.16
2019-02-20T17:58:44.645Z,11.16
2019-02-20T18:01:17.293Z,11.15
2019-02-20T18:03:47.077Z,11.15
2019-02-20T18:06:16.469Z,11.15
2019-02-20T18:08:46.075Z,11.14
2019-02-20T18:11:15.629Z,11.14
2019-02-20T18:13:45.119Z,11.14
2019-02-20T18:16:14.699Z,11.13
2019-02-20T18:18:44.071Z,11.12
2019-02-20T18:21:15.168Z,11.12
2019-02-20T18:23:44.572Z,11.11
2019-02-20T18:26:13.993Z,11.11
2019-02-20T18:28:43.271Z,11.11
2019-02-20T18:31:12.606Z,11.12
2019-02-20T18:33:41.993Z,11.12
2019-02-20T18:36:11.705Z,11.11
2019-02-20T18:38:41.053Z,11.13
2019-02-20T18:41:10.424Z,11.13
2019-02-20T18:43:39.736Z,11.13
2019-02-20T18:46:09.049Z,11.14
2019-02-20T18:48:38.420Z,11.14
2019-02-20T18:51:07.870Z,11.14
2019-02-20T18:53:37.593Z,11.14
2019-02-20T18:56:06.967Z,11.15
2019-02-20T18:58:36.351Z,11.14
2019-02-20T19:01:05.885Z,11.14
2019-02-20T19:03:35.238Z,11.15
2019-02-20T19:06:04.609Z,11.15
2019-02-20T19:08:36.767Z,11.15
2019-02-20T19:11:10.800Z,11.14
2019-02-20T19:13:59.638Z,11.14
2019-02-20T19:17:05.800Z,11.16
2019-02-20T19:20:31.885Z,11.14
2019-02-20T19:23:46.623Z,11.14
2019-02-20T19:26:33.277Z,11.14
2019-02-20T19:29:46.465Z,11.13
2019-02-20T19:32:40.811Z,11.13
2019-02-20T19:35:47.509Z,11.12
2019-02-20T19:38:53.349Z,11.12
2019-02-20T19:42:27.577Z,11.12
2019-02-20T19:45:26.416Z,11.12
2019-02-20T19:48:32.417Z,11.12
2019-02-20T19:51:38.919Z,11.11
2019-02-20T19:54:18.129Z,11.13
2019-02-20T19:57:10.176Z,11.11
2019-02-20T20:00:10.104Z,11.10
2019-02-20T20:03:29.845Z,11.11
2019-02-20T20:06:16.835Z,11.12
2019-02-20T20:09:21.015Z,11.11
2019-02-20T20:12:31.395Z,11.10
2019-02-20T20:15:25.911Z,11.11
2019-02-20T20:18:24.878Z,11.11
2019-02-20T20:21:26.086Z,11.11
2019-02-20T20:24:36.667Z,11.11
2019-02-20T20:27:47.433Z,11.11
2019-02-20T20:31:04.149Z,11.11
2019-02-20T20:34:10.114Z,11.11
2019-02-20T20:37:17.934Z,11.10
2019-02-20T20:40:00.942Z,11.10
2019-02-20T20:43:03.630Z,11.09
2019-02-20T20:45:51.131Z,11.11
2019-02-20T20:49:09.680Z,11.11
2019-02-20T20:52:22.227Z,11.11
2019-02-20T20:55:32.726Z,11.10
2019-02-20T20:58:31.116Z,11.09
2019-02-20T21:01:47.026Z,11.11
2019-02-20T21:04:46.307Z,11.10
2019-02-20T21:07:59.127Z,11.10
2019-02-20T21:11:21.227Z,11.11
2019-02-20T21:14:07.561Z,11.11
2019-02-20T21:17:04.664Z,11.10
2019-02-20T21:20:15.737Z,11.11
2019-02-20T21:23:50.049Z,11.11
2019-02-20T21:26:58.222Z,11.11
2019-02-20T21:29:43.239Z,11.11
2019-02-20T21:32:46.157Z,11.11
2019-02-20T21:35:27.119Z,11.12
2019-02-20T21:38:21.935Z,11.12
2019-02-20T21:41:30.191Z,11.13
2019-02-20T21:44:38.270Z,11.12
2019-02-20T21:47:57.340Z,11.12
2019-02-20T21:50:52.205Z,11.13
2019-02-20T21:54:02.646Z,11.12
2019-02-20T21:56:49.949Z,11.12
2019-02-20T22:00:04.029Z,11.12
2019-02-20T22:03:11.423Z,11.13
2019-02-20T22:06:21.767Z,11.12
2019-02-20T22:09:00.494Z,11.12
2019-02-20T22:12:02.497Z,11.13
2019-02-20T22:14:49.473Z,11.14
2019-02-20T22:17:50.751Z,11.13
2019-02-20T22:20:34.339Z,11.14
2019-02-20T22:23:37.331Z,11.10
2019-02-20T22:26:31.350Z,11.10
2019-02-20T22:29:50.099Z,11.13
2019-02-20T22:33:19.787Z,11.14
2019-02-20T22:36:28.225Z,11.13
2019-02-20T22:39:31.103Z,11.14
2019-02-20T22:42:35.926Z,11.14
2019-02-20T22:45:48.233Z,11.14
2019-02-20T22:48:56.839Z,11.14
2019-02-20T22:51:48.785Z,11.15
2019-02-20T22:54:58.951Z,11.13
2019-02-20T22:57:58.443Z,11.13
2019-02-20T23:01:03.454Z,11.14
2019-02-20T23:04:00.878Z,11.15
2019-02-20T23:07:23.259Z,11.15
2019-02-20T23:10:29.325Z,11.15
2019-02-20T23:13:34.255Z,11.16
2019-02-20T23:16:03.599Z,11.16
2019-02-20T23:18:32.917Z,11.17
2019-02-20T23:21:02.284Z,11.15
2019-02-20T23:23:31.638Z,11.15
2019-02-20T23:26:00.985Z,11.18
2019-02-20T23:28:31.041Z,11.18
2019-02-20T23:31:00.476Z,11.19
2019-02-20T23:33:29.802Z,11.20
2019-02-20T23:35:59.176Z,11.20
2019-02-20T23:38:28.511Z,11.20
2019-02-20T23:40:57.854Z,11.20
2019-02-20T23:43:27.245Z,11.20
2019-02-20T23:45:56.559Z,11.22
2019-02-20T23:48:25.925Z,11.22
2019-02-20T23:50:55.259Z,11.21
2019-02-20T23:53:24.601Z,11.22
2019-02-20T23:55:54.005Z,11.19
2019-02-20T23:58:23.336Z,11.22
